Time;durP1;ratioP1;P1;durP2;ratioP2;P2;SDS_P1;SDS_P2;PMS_P1;PMS_P2;Temp;Humidity;BMP_temperature;BMP_pressure;BME280_temperature;BME280_humidity;BME280_pressure;Samples;Min_cycle;Max_cycle;Signal;HPM_P1;HPM_P2
2023/04/06 00:00:35;;;;;;;19.08;10.30;;;;;;;1.30;60.66;100545.34;5083836;28;20474;-70
2023/04/06 00:03:01;;;;;;;21.15;11.13;;;;;;;1.44;60.89;100574.59;5085378;28;20028;-71
2023/04/06 00:05:27;;;;;;;17.85;10.73;;;;;;;1.32;61.31;100554.91;5084202;28;20032;-71
2023/04/06 00:07:55;;;;;;;20.77;11.13;;;;;;;1.37;61.69;100570.53;5084502;28;20073;-71
2023/04/06 00:10:21;;;;;;;21.85;11.77;;;;;;;1.18;62.08;100540.63;5084854;28;20126;-70
2023/04/06 00:12:46;;;;;;;19.55;12.02;;;;;;;1.30;62.41;100567.34;5084084;28;20528;-71
2023/04/06 00:15:12;;;;;;;25.58;11.82;;;;;;;1.20;62.70;100563.41;5085017;28;20061;-71
2023/04/06 00:17:37;;;;;;;20.33;11.00;;;;;;;1.08;63.18;100549.91;5066238;28;20032;-71
2023/04/06 00:20:04;;;;;;;19.23;10.90;;;;;;;0.98;63.48;100549.47;5084802;28;20065;-71
2023/04/06 00:22:29;;;;;;;21.70;11.55;;;;;;;0.90;63.58;100541.03;5087333;28;20031;-71
2023/04/06 00:24:55;;;;;;;23.42;11.93;;;;;;;0.88;63.55;100532.34;5088775;28;20023;-71
2023/04/06 00:27:20;;;;;;;19.65;10.85;;;;;;;0.99;63.44;100561.72;5070552;28;20031;-72
2023/04/06 00:29:46;;;;;;;20.20;10.43;;;;;;;0.96;63.66;100555.72;5069886;28;20040;-72
2023/04/06 00:32:11;;;;;;;22.15;11.13;;;;;;;0.95;63.39;100556.66;5069692;28;20039;-71
2023/04/06 00:34:37;;;;;;;19.35;10.68;;;;;;;0.95;63.31;100554.03;5069884;28;20122;-71
2023/04/06 00:37:02;;;;;;;19.25;9.90;;;;;;;0.94;62.82;100557.59;5088606;28;20040;-71
2023/04/06 00:39:27;;;;;;;22.83;10.25;;;;;;;0.89;62.67;100541.97;5087772;28;20034;-71
2023/04/06 00:41:53;;;;;;;15.45;8.95;;;;;;;0.92;62.60;100543.59;5070081;28;20056;-72
2023/04/06 00:44:20;;;;;;;17.90;9.05;;;;;;;0.85;62.20;100526.31;5088371;28;20051;-71
2023/04/06 00:46:46;;;;;;;19.50;9.77;;;;;;;0.94;61.98;100545.25;5087882;28;20037;-72
2023/04/06 00:49:11;;;;;;;19.88;9.73;;;;;;;0.89;61.93;100536.69;5069789;28;20040;-72
2023/04/06 00:51:37;;;;;;;21.77;10.65;;;;;;;0.95;61.81;100533.75;5069872;28;20118;-71
2023/04/06 00:54:02;;;;;;;18.38;10.98;;;;;;;0.92;61.51;100533.91;5088347;28;20391;-72
2023/04/06 00:56:28;;;;;;;20.20;11.15;;;;;;;0.94;61.72;100528.56;5088278;28;20039;-72
2023/04/06 00:58:53;;;;;;;22.23;11.68;;;;;;;0.82;61.91;100518.53;5088217;28;20075;-71
2023/04/06 01:01:19;;;;;;;19.42;10.45;;;;;;;0.86;61.37;100531.53;5088165;28;20084;-71
2023/04/06 01:03:48;;;;;;;20.02;11.07;;;;;;;0.66;61.54;100499.91;5069748;28;20032;-71
2023/04/06 01:06:14;;;;;;;19.88;10.80;;;;;;;0.77;61.72;100525.81;5069388;28;20253;-71
2023/04/06 01:08:39;;;;;;;19.35;10.20;;;;;;;0.82;61.35;100540.53;5069609;28;20035;-72
2023/04/06 01:11:05;;;;;;;17.73;10.20;;;;;;;0.77;61.91;100531.09;5088165;28;20031;-71
2023/04/06 01:13:30;;;;;;;21.88;11.25;;;;;;;0.76;61.93;100547.84;5087607;28;20111;-73
2023/04/06 01:15:56;;;;;;;22.25;10.32;;;;;;;0.55;61.81;100503.94;5087672;28;20031;-71
2023/04/06 01:18:28;;;;;;;24.13;11.70;;;;;;;0.57;62.01;100510.00;5069699;28;20082;-71
2023/04/06 01:20:54;;;;;;;24.48;11.18;;;;;;;0.73;62.11;100548.84;5069487;28;20101;-72
2023/04/06 01:23:20;;;;;;;21.67;11.48;;;;;;;0.68;62.43;100542.06;5069319;28;20425;-71
2023/04/06 01:25:45;;;;;;;21.10;10.60;;;;;;;0.67;62.34;100543.84;5086875;28;20044;-72
2023/04/06 01:28:11;;;;;;;24.77;12.93;;;;;;;0.54;62.21;100521.53;5087517;28;20032;-71
2023/04/06 01:30:36;;;;;;;23.75;11.48;;;;;;;0.53;62.52;100518.97;5069226;28;20034;-71
2023/04/06 01:33:02;;;;;;;19.00;11.13;;;;;;;0.41;62.57;100501.91;5087120;28;20114;-71
2023/04/06 01:35:28;;;;;;;21.20;11.63;;;;;;;0.57;62.81;100526.69;5068483;28;20024;-71
2023/04/06 01:37:53;;;;;;;22.48;11.85;;;;;;;0.40;62.58;100502.84;5087562;28;20025;-71
2023/04/06 01:40:19;;;;;;;20.73;11.75;;;;;;;0.54;62.81;100531.25;5086828;28;20031;-71
2023/04/06 01:42:45;;;;;;;18.60;11.80;;;;;;;0.41;62.56;100517.72;5086993;28;20055;-71
2023/04/06 01:45:10;;;;;;;21.30;11.82;;;;;;;0.50;62.71;100530.53;5087653;28;20118;-71
2023/04/06 01:47:36;;;;;;;20.88;11.68;;;;;;;0.45;62.76;100529.84;5087129;28;20027;-71
2023/04/06 01:50:05;;;;;;;21.77;10.75;;;;;;;0.32;62.97;100504.94;5087115;28;20019;-72
2023/04/06 01:52:30;;;;;;;21.80;11.07;;;;;;;0.19;62.98;100489.72;5086898;28;20028;-72
2023/04/06 01:54:56;;;;;;;22.05;11.50;;;;;;;0.28;63.25;100507.75;5086969;28;20024;-72
2023/04/06 01:57:21;;;;;;;22.17;10.80;;;;;;;0.26;63.22;100514.91;5086816;28;20039;-72
2023/04/06 01:59:47;;;;;;;20.92;10.80;;;;;;;0.22;63.22;100508.88;5086077;28;20831;-71
2023/04/06 02:02:12;;;;;;;18.30;10.80;;;;;;;0.21;63.64;100501.91;5087130;28;20106;-71
2023/04/06 02:04:38;;;;;;;22.27;11.30;;;;;;;0.15;63.93;100496.91;5086845;28;20032;-71
2023/04/06 02:07:04;;;;;;;24.40;12.10;;;;;;;0.20;64.26;100502.84;5086901;28;20024;-72
2023/04/06 02:09:29;;;;;;;27.17;12.48;;;;;;;0.16;64.29;100500.41;5068052;28;20028;-72
2023/04/06 02:11:55;;;;;;;30.75;13.77;;;;;;;0.17;64.66;100508.25;5086273;28;20089;-72
2023/04/06 02:14:21;;;;;;;36.72;14.23;;;;;;;0.14;64.64;100508.38;5086977;28;20525;-71
2023/04/06 02:16:46;;;;;;;29.67;14.52;;;;;;;-0.15;64.58;100466.56;5086251;28;20038;-71
2023/04/06 02:19:12;;;;;;;27.55;13.75;;;;;;;-0.01;64.50;100477.38;5086931;28;20024;-72
2023/04/06 02:21:37;;;;;;;24.08;11.60;;;;;;;0.07;64.53;100495.50;5086590;28;20051;-72
2023/04/06 02:24:03;;;;;;;23.20;11.75;;;;;;;-0.03;64.40;100472.16;5086406;28;20032;-72
2023/04/06 02:26:29;;;;;;;24.23;11.45;;;;;;;0.08;63.90;100481.41;5068468;28;20074;-71
2023/04/06 02:28:55;;;;;;;33.00;13.07;;;;;;;0.21;63.67;100496.63;5086371;28;20012;-72
2023/04/06 02:31:20;;;;;;;31.02;15.55;;;;;;;0.26;64.27;100499.94;5086681;28;20038;-71
2023/04/06 02:33:45;;;;;;;41.67;17.67;;;;;;;0.20;64.41;100483.50;5085953;28;20024;-72
2023/04/06 02:36:11;;;;;;;41.88;18.63;;;;;;;0.31;65.00;100495.31;5086650;28;20032;-72
2023/04/06 02:38:36;;;;;;;38.42;17.23;;;;;;;0.28;64.82;100492.81;5067808;28;20043;-72
2023/04/06 02:41:02;;;;;;;42.20;18.17;;;;;;;0.22;64.92;100495.69;5086176;28;20028;-72
2023/04/06 02:43:27;;;;;;;46.92;19.23;;;;;;;0.18;64.87;100499.41;5067629;28;20027;-72
2023/04/06 02:45:53;;;;;;;38.40;18.33;;;;;;;0.04;65.05;100475.41;5067206;28;20054;-72
2023/04/06 02:48:18;;;;;;;44.00;19.17;;;;;;;0.06;64.62;100485.91;5086346;28;20031;-72
2023/04/06 02:50:44;;;;;;;39.92;16.92;;;;;;;-0.06;64.97;100467.03;5085849;28;20036;-72
2023/04/06 02:53:10;;;;;;;42.20;18.13;;;;;;;-0.11;64.89;100476.06;5068213;28;21833;-72
2023/04/06 02:55:35;;;;;;;35.58;17.70;;;;;;;-0.18;66.21;100477.22;5085789;28;20046;-72
2023/04/06 02:58:01;;;;;;;36.00;18.00;;;;;;;-0.07;66.25;100498.72;5085471;28;20476;-72
2023/04/06 03:00:26;;;;;;;39.03;17.08;;;;;;;-0.09;66.64;100501.41;5067720;28;20087;-72
2023/04/06 03:02:51;;;;;;;42.40;18.42;;;;;;;-0.19;67.07;100494.81;5086933;28;20065;-76
2023/04/06 03:05:17;;;;;;;40.72;17.38;;;;;;;-0.28;67.44;100481.19;5087494;28;20035;-76
2023/04/06 03:07:42;;;;;;;37.13;17.00;;;;;;;-0.26;67.47;100492.50;5087120;28;20426;-76
2023/04/06 03:10:09;;;;;;;40.88;18.02;;;;;;;-0.33;67.96;100488.41;5087496;28;20046;-76
2023/04/06 03:12:35;;;;;;;38.83;17.85;;;;;;;-0.39;67.99;100489.50;5068869;28;20028;-76
2023/04/06 03:15:00;;;;;;;42.65;17.48;;;;;;;-0.42;68.54;100489.63;5087615;28;20406;-76
2023/04/06 03:17:26;;;;;;;42.08;18.23;;;;;;;-0.36;68.90;100499.06;5087466;28;20054;-76
2023/04/06 03:19:51;;;;;;;39.85;18.35;;;;;;;-0.37;69.14;100502.63;5086765;28;20040;-76
2023/04/06 03:22:16;;;;;;;43.00;18.83;;;;;;;-0.60;68.92;100471.09;5085588;28;20490;-72
2023/04/06 03:24:42;;;;;;;41.55;18.00;;;;;;;-0.61;69.06;100482.56;5067270;28;20058;-72
2023/04/06 03:27:07;;;;;;;43.13;18.40;;;;;;;-0.66;69.24;100484.50;5085258;28;20024;-72
2023/04/06 03:29:33;;;;;;;41.38;19.08;;;;;;;-0.68;69.36;100481.91;5085148;28;20032;-72
2023/04/06 03:31:58;;;;;;;52.22;20.83;;;;;;;-0.68;69.71;100492.44;5066847;28;20024;-72
2023/04/06 03:34:24;;;;;;;44.08;19.88;;;;;;;-0.68;69.95;100499.53;5085338;28;20051;-71
2023/04/06 03:36:49;;;;;;;61.38;26.30;;;;;;;-0.77;69.96;100484.06;5084740;28;20027;-72
2023/04/06 03:39:15;;;;;;;80.15;28.40;;;;;;;-0.71;69.61;100508.38;5085196;28;20046;-72
2023/04/06 03:41:40;;;;;;;81.47;33.67;;;;;;;-0.75;69.92;100505.91;5084681;28;20035;-72
2023/04/06 03:44:06;;;;;;;90.70;34.92;;;;;;;-0.88;69.98;100487.13;5084823;28;21749;-72
2023/04/06 03:46:31;;;;;;;102.82;36.90;;;;;;;-0.76;70.87;100510.34;5084865;28;20040;-72
2023/04/06 03:48:57;;;;;;;145.23;50.78;;;;;;;-0.86;71.11;100493.19;5066557;28;20106;-72
2023/04/06 03:51:22;;;;;;;165.73;58.40;;;;;;;-0.79;71.12;100504.31;5085170;28;20035;-72
2023/04/06 03:53:48;;;;;;;189.57;64.10;;;;;;;-0.93;71.15;100478.53;5084277;28;20055;-72
2023/04/06 03:56:13;;;;;;;163.85;62.28;;;;;;;-0.78;70.56;100506.91;5087369;28;20487;-72
2023/04/06 03:58:39;;;;;;;165.15;55.65;;;;;;;-0.88;70.13;100500.28;5088757;28;20686;-72
2023/04/06 04:01:04;;;;;;;136.20;53.63;;;;;;;-0.79;70.53;100517.47;5089304;28;20040;-72
2023/04/06 04:03:30;;;;;;;132.65;46.80;;;;;;;-0.91;70.93;100491.63;5088286;28;20027;-71
2023/04/06 04:05:55;;;;;;;125.55;44.13;;;;;;;-0.84;70.44;100508.94;5090659;28;20012;-71
2023/04/06 04:08:21;;;;;;;92.82;35.60;;;;;;;-0.76;70.20;100515.59;5092040;28;20028;-72
2023/04/06 04:10:47;;;;;;;105.57;40.92;;;;;;;-0.73;69.48;100526.03;5088537;28;20304;-72
2023/04/06 04:13:12;;;;;;;96.40;39.15;;;;;;;-0.87;69.32;100496.72;5074547;28;20023;-72
2023/04/06 04:15:37;;;;;;;118.82;42.83;;;;;;;-0.88;69.22;100489.75;5074601;28;20039;-72
2023/04/06 04:18:03;;;;;;;97.10;38.20;;;;;;;-0.62;68.66;100512.41;5089109;28;20093;-72
2023/04/06 04:20:28;;;;;;;83.00;32.17;;;;;;;-0.51;67.38;100513.69;5088277;28;20038;-72
2023/04/06 04:22:54;;;;;;;83.55;33.08;;;;;;;-0.59;67.28;100505.25;5070311;28;20027;-72
2023/04/06 04:25:19;;;;;;;83.78;33.20;;;;;;;-0.59;67.27;100496.50;5069970;28;20383;-70
2023/04/06 04:27:45;;;;;;;67.05;28.70;;;;;;;-0.64;67.14;100499.31;5089248;28;20468;-72
2023/04/06 04:30:10;;;;;;;67.05;27.27;;;;;;;-0.53;67.47;100515.56;5088679;28;20027;-72
2023/04/06 04:32:36;;;;;;;55.78;24.48;;;;;;;-0.70;67.62;100496.06;5088658;28;20031;-73
2023/04/06 04:35:02;;;;;;;37.97;18.88;;;;;;;-0.58;67.59;100509.59;5070526;28;20062;-73
2023/04/06 04:37:27;;;;;;;37.00;18.13;;;;;;;-0.56;67.55;100510.41;5070209;28;20502;-73
2023/04/06 04:39:52;;;;;;;31.45;17.27;;;;;;;-0.53;67.48;100514.69;5088606;28;20155;-73
2023/04/06 04:42:18;;;;;;;27.77;15.18;;;;;;;-0.50;67.08;100517.19;5089161;28;20038;-73
2023/04/06 04:44:43;;;;;;;27.10;14.60;;;;;;;-0.55;67.10;100506.84;5088823;28;20099;-73
2023/04/06 04:47:09;;;;;;;24.70;14.52;;;;;;;-0.48;67.15;100505.69;5089167;28;20519;-74
2023/04/06 04:49:34;;;;;;;26.42;12.73;;;;;;;-0.42;66.74;100510.72;5088667;28;20047;-74
2023/04/06 04:52:00;;;;;;;22.25;13.02;;;;;;;-0.32;65.82;100512.03;5070949;28;20031;-73
2023/04/06 04:54:25;;;;;;;23.35;12.65;;;;;;;-0.46;65.73;100484.53;5092348;28;20032;-73
2023/04/06 04:56:51;;;;;;;20.98;11.63;;;;;;;-0.14;63.81;100498.13;5089321;28;20035;-73
2023/04/06 04:59:16;;;;;;;23.60;12.52;;;;;;;-0.13;63.21;100485.78;5071647;28;20056;-73
2023/04/06 05:01:42;;;;;;;18.67;11.90;;;;;;;-0.04;62.80;100491.56;5070007;28;20742;-73
2023/04/06 05:04:08;;;;;;;18.98;10.45;;;;;;;-0.10;62.54;100483.91;5088267;28;20024;-74
2023/04/06 05:06:33;;;;;;;23.20;11.55;;;;;;;-0.04;62.85;100496.81;5085504;28;20102;-73
2023/04/06 05:08:59;;;;;;;22.45;12.10;;;;;;;0.18;62.46;100511.72;5088284;28;20047;-73
2023/04/06 05:11:26;;;;;;;19.45;10.88;;;;;;;0.26;62.09;100507.00;5068139;28;20639;-72
2023/04/06 05:13:51;;;;;;;22.83;13.02;;;;;;;0.29;61.98;100491.03;5067242;28;20040;-73
2023/04/06 05:16:17;;;;;;;25.58;13.50;;;;;;;0.55;61.58;100503.94;5086786;28;20039;-73
2023/04/06 05:18:42;;;;;;;27.08;13.93;;;;;;;0.65;61.08;100505.25;5087594;28;20429;-73
2023/04/06 05:21:10;;;;;;;27.90;14.55;;;;;;;0.53;61.34;100493.47;5087756;28;20529;-72
2023/04/06 05:23:35;;;;;;;33.78;17.45;;;;;;;0.78;60.52;100493.22;5087221;28;20023;-73
2023/04/06 05:26:01;;;;;;;31.75;17.50;;;;;;;0.80;60.21;100478.19;5087801;28;20046;-73
2023/04/06 05:28:26;;;;;;;32.67;17.15;;;;;;;0.82;60.71;100478.94;5069586;28;20039;-73
2023/04/06 05:30:52;;;;;;;32.67;15.77;;;;;;;0.84;60.83;100475.28;5069208;28;20019;-73
2023/04/06 05:33:18;;;;;;;28.42;14.90;;;;;;;0.94;61.27;100499.50;5088067;28;20399;-73
2023/04/06 05:35:44;;;;;;;33.20;14.95;;;;;;;1.03;60.93;100492.00;5086570;28;20028;-74
2023/04/06 05:38:10;;;;;;;20.50;12.60;;;;;;;0.95;61.41;100488.88;5069703;28;20068;-73
2023/04/06 05:40:37;;;;;;;24.67;13.45;;;;;;;0.99;61.22;100479.88;5087678;28;20039;-73
2023/04/06 05:43:03;;;;;;;24.23;11.27;;;;;;;1.21;60.05;100470.03;5069460;28;20395;-73
2023/04/06 05:45:28;;;;;;;20.40;10.55;;;;;;;1.32;59.33;100480.09;5087779;28;20028;-73
2023/04/06 05:47:54;;;;;;;21.67;11.02;;;;;;;1.41;58.81;100477.00;5087606;28;20052;-73
2023/04/06 05:50:19;;;;;;;15.55;9.02;;;;;;;1.65;57.78;100481.09;5087530;28;20027;-73
2023/04/06 05:52:46;;;;;;;15.25;10.02;;;;;;;1.81;58.07;100487.34;5087737;28;20024;-73
2023/04/06 05:55:12;;;;;;;18.17;9.93;;;;;;;1.89;58.94;100479.88;5087475;28;20032;-74
2023/04/06 05:57:37;;;;;;;16.48;9.50;;;;;;;1.79;59.22;100475.97;5087609;28;20036;-74
2023/04/06 06:00:06;;;;;;;20.77;10.10;;;;;;;1.95;59.87;100482.22;5069033;28;20052;-74
2023/04/06 06:02:31;;;;;;;18.33;9.65;;;;;;;1.96;60.04;100476.84;5086948;28;20039;-73
2023/04/06 06:04:57;;;;;;;18.52;10.43;;;;;;;2.10;59.55;100469.06;5069278;28;20027;-73
2023/04/06 06:07:23;;;;;;;16.52;10.15;;;;;;;2.42;59.43;100487.75;5087235;28;20365;-73
2023/04/06 06:09:49;;;;;;;16.70;9.82;;;;;;;2.48;59.72;100482.13;5087467;28;20523;-74
2023/04/06 06:12:14;;;;;;;17.77;10.52;;;;;;;2.82;58.32;100485.56;5087339;28;20051;-74
2023/04/06 06:14:40;;;;;;;16.60;9.70;;;;;;;2.94;56.76;100473.44;5086834;28;20213;-73
2023/04/06 06:17:05;;;;;;;16.02;10.02;;;;;;;3.25;56.58;100466.38;5068638;28;20480;-74
2023/04/06 06:19:31;;;;;;;17.95;10.27;;;;;;;3.39;55.31;100477.03;5086201;28;20032;-73
2023/04/06 06:21:56;;;;;;;19.27;10.20;;;;;;;3.54;54.33;100470.03;5087212;28;20357;-73
2023/04/06 06:24:22;;;;;;;17.02;10.15;;;;;;;3.39;54.27;100433.81;5086926;28;20028;-73
2023/04/06 06:26:48;;;;;;;17.05;9.75;;;;;;;3.67;54.28;100471.91;5087300;28;20028;-74
2023/04/06 06:29:14;;;;;;;20.58;9.80;;;;;;;3.62;54.91;100466.03;5068836;28;20485;-73
2023/04/06 06:31:40;;;;;;;17.73;10.35;;;;;;;3.71;55.07;100460.16;5087099;28;20032;-73
2023/04/06 06:34:05;;;;;;;19.30;10.27;;;;;;;3.92;53.86;100447.47;5086559;28;20023;-74
2023/04/06 06:36:31;;;;;;;17.15;9.27;;;;;;;4.11;53.91;100466.66;5083191;28;20801;-74
2023/04/06 06:38:58;;;;;;;15.98;8.95;;;;;;;4.39;51.79;100458.78;5065574;28;20028;-74
2023/04/06 06:41:25;;;;;;;19.50;9.95;;;;;;;4.40;51.00;100447.19;5068607;28;20445;-74
2023/04/06 06:43:51;;;;;;;17.90;9.57;;;;;;;4.52;50.67;100459.75;5084601;28;20024;-73
2023/04/06 06:46:16;;;;;;;16.60;8.82;;;;;;;4.45;50.75;100435.34;5069158;28;20109;-73
2023/04/06 06:48:42;;;;;;;16.35;8.90;;;;;;;4.52;51.12;100431.38;5086907;28;20054;-73
2023/04/06 06:51:09;;;;;;;21.83;9.93;;;;;;;4.53;50.12;100427.78;5086540;28;20055;-73
2023/04/06 06:53:35;;;;;;;17.30;9.43;;;;;;;4.73;49.95;100453.09;5090791;28;20027;-74
2023/04/06 06:56:00;;;;;;;16.58;9.07;;;;;;;4.85;48.96;100454.13;5088229;28;20031;-73
2023/04/06 06:58:26;;;;;;;19.67;8.90;;;;;;;4.89;49.35;100445.88;5087498;28;20042;-73
2023/04/06 07:00:59;;;;;;;17.42;10.07;;;;;;;4.93;49.79;100441.25;5083768;28;20423;-73
2023/04/06 07:03:24;;;;;;;17.10;9.48;;;;;;;5.09;48.67;100449.97;5105098;27;20137;-74
2023/04/06 07:05:53;;;;;;;16.45;9.05;;;;;;;5.08;48.60;100445.56;5090013;28;20103;-73
2023/04/06 07:08:20;;;;;;;16.60;9.50;;;;;;;5.05;48.43;100413.88;5068570;28;20379;-73
2023/04/06 07:10:45;;;;;;;14.75;8.52;;;;;;;5.31;47.93;100440.50;5067431;28;20031;-73
2023/04/06 07:13:12;;;;;;;17.90;9.05;;;;;;;5.35;48.06;100449.97;5086128;28;20028;-73
2023/04/06 07:15:37;;;;;;;14.60;8.90;;;;;;;5.49;46.98;100447.31;5067161;28;20110;-73
2023/04/06 07:18:03;;;;;;;14.60;8.45;;;;;;;5.46;46.31;100431.53;5085849;28;20127;-73
2023/04/06 07:20:28;;;;;;;12.30;7.78;;;;;;;5.54;47.19;100450.50;5087481;28;20028;-73
2023/04/06 07:22:54;;;;;;;19.13;9.65;;;;;;;5.68;45.82;100417.69;5082712;28;20038;-73
2023/04/06 07:25:20;;;;;;;16.77;10.07;;;;;;;5.92;45.69;100435.56;5088139;28;20431;-73
2023/04/06 07:27:45;;;;;;;17.98;9.18;;;;;;;6.03;44.58;100438.34;5085741;28;20016;-74
2023/04/06 07:30:11;;;;;;;17.75;9.45;;;;;;;6.17;44.29;100442.75;5067519;28;20032;-73
2023/04/06 07:32:37;;;;;;;17.25;9.63;;;;;;;6.22;44.05;100436.16;5066923;28;20031;-73
2023/04/06 07:35:03;;;;;;;16.58;9.35;;;;;;;6.39;43.75;100441.16;5085968;28;20468;-73
2023/04/06 07:37:28;;;;;;;17.10;8.95;;;;;;;6.54;42.70;100440.13;5067284;28;20476;-73
2023/04/06 07:39:54;;;;;;;17.20;8.90;;;;;;;6.61;42.35;100445.88;5067114;28;20088;-73
2023/04/06 07:42:19;;;;;;;14.15;8.60;;;;;;;6.58;42.33;100412.28;5086066;28;20032;-73
2023/04/06 07:44:45;;;;;;;13.95;8.50;;;;;;;6.55;42.55;100414.34;5085495;28;20020;-73
2023/04/06 07:47:10;;;;;;;13.43;8.48;;;;;;;6.83;41.36;100422.94;5067403;28;20032;-73
2023/04/06 07:49:36;;;;;;;15.60;8.48;;;;;;;6.82;41.55;100415.06;5067088;28;20040;-73
2023/04/06 07:52:02;;;;;;;17.17;7.70;;;;;;;6.83;40.83;100414.94;5085581;28;20114;-73
2023/04/06 07:54:28;;;;;;;14.35;8.18;;;;;;;6.85;41.05;100410.38;5085478;28;20036;-73
2023/04/06 07:56:53;;;;;;;15.65;8.05;;;;;;;6.85;42.06;100405.03;5085119;28;20024;-72
2023/04/06 07:59:19;;;;;;;14.50;8.13;;;;;;;7.02;40.95;100416.31;5067343;28;20028;-73
2023/04/06 08:01:44;;;;;;;15.68;7.43;;;;;;;6.94;41.70;100403.53;5084628;28;20131;-73
2023/04/06 08:04:10;;;;;;;16.02;8.27;;;;;;;7.25;41.42;100421.66;5085486;28;20084;-73
2023/04/06 08:06:36;;;;;;;15.65;8.85;;;;;;;7.29;40.79;100408.97;5086024;28;20060;-73
2023/04/06 08:09:02;;;;;;;19.13;8.75;;;;;;;7.41;40.71;100400.09;5066525;28;20081;-73
2023/04/06 08:11:28;;;;;;;18.63;9.70;;;;;;;7.55;39.60;100387.44;5065871;28;20444;-72
2023/04/06 08:13:55;;;;;;;16.95;10.43;;;;;;;7.85;39.34;100397.59;5066657;28;20077;-73
2023/04/06 08:16:21;;;;;;;17.08;10.55;;;;;;;8.25;38.20;100378.47;5067860;28;20020;-73
2023/04/06 08:18:46;;;;;;;16.30;10.45;;;;;;;8.93;37.53;100386.38;5085566;28;20040;-73
2023/04/06 08:21:11;;;;;;;22.42;10.70;;;;;;;9.41;36.54;100379.75;5085630;28;20039;-73
2023/04/06 08:23:37;;;;;;;24.42;10.82;;;;;;;10.08;35.36;100373.19;5086015;28;20478;-73
2023/04/06 08:26:02;;;;;;;20.90;11.05;;;;;;;10.40;34.63;100368.59;5085182;28;20020;-73
2023/04/06 08:28:28;;;;;;;13.93;9.30;;;;;;;10.81;34.05;100387.28;5085315;28;20047;-73
2023/04/06 08:30:53;;;;;;;16.13;9.65;;;;;;;10.72;33.92;100368.47;5085452;28;20035;-73
2023/04/06 08:33:19;;;;;;;17.85;11.13;;;;;;;10.46;34.10;100383.28;5067252;28;20031;-73
2023/04/06 08:35:44;;;;;;;16.77;10.02;;;;;;;10.32;34.38;100367.56;5066521;28;20127;-74
2023/04/06 08:38:10;;;;;;;19.05;9.85;;;;;;;10.11;34.38;100362.19;5068079;28;20458;-73
2023/04/06 08:40:37;;;;;;;14.43;8.88;;;;;;;9.96;34.68;100368.81;5067617;28;20390;-73
2023/04/06 08:43:08;;;;;;;17.52;9.18;;;;;;;9.85;35.45;100370.69;5068834;28;20036;-73
2023/04/06 08:45:34;;;;;;;13.68;7.95;;;;;;;9.71;36.18;100374.56;5089109;28;20016;-73
2023/04/06 08:48:01;;;;;;;18.05;9.45;;;;;;;9.62;35.90;100361.06;5071442;28;20741;-73
2023/04/06 08:50:29;;;;;;;15.95;8.75;;;;;;;9.59;35.52;100351.47;5071155;28;20070;-73
2023/04/06 08:52:55;;;;;;;13.40;7.82;;;;;;;9.63;36.04;100368.97;5088944;28;20042;-73
2023/04/06 08:55:22;;;;;;;12.35;8.13;;;;;;;9.84;34.75;100342.22;5070430;28;20035;-73
2023/04/06 08:57:48;;;;;;;13.43;8.13;;;;;;;10.01;35.28;100355.91;5086183;28;20077;-73
2023/04/06 09:00:15;;;;;;;12.20;8.48;;;;;;;9.96;34.76;100354.59;5088816;28;20052;-72
2023/04/06 09:02:45;;;;;;;14.93;8.43;;;;;;;10.10;35.05;100357.84;5069709;28;20388;-73
2023/04/06 09:05:10;;;;;;;18.35;9.98;;;;;;;10.20;34.80;100353.38;5088769;28;20019;-73
2023/04/06 09:07:37;;;;;;;13.40;8.52;;;;;;;9.98;35.04;100350.78;5088497;28;20046;-74
2023/04/06 09:10:04;;;;;;;11.25;8.52;;;;;;;10.06;35.07;100345.66;5069277;28;20032;-72
2023/04/06 09:12:31;;;;;;;15.80;8.88;;;;;;;10.30;34.08;100316.75;5069542;28;20119;-73
2023/04/06 09:14:59;;;;;;;17.48;9.40;;;;;;;10.35;34.16;100344.00;5085109;28;20020;-72
2023/04/06 09:17:30;;;;;;;20.65;9.52;;;;;;;10.70;33.75;100343.59;5069305;28;20039;-72
2023/04/06 09:19:56;;;;;;;15.02;8.88;;;;;;;11.03;33.24;100333.41;5087566;28;20036;-73
2023/04/06 09:22:22;;;;;;;13.02;8.65;;;;;;;11.00;32.47;100344.41;5069481;28;20051;-73
2023/04/06 09:24:52;;;;;;;16.48;8.63;;;;;;;10.98;32.18;100319.56;5066883;28;20027;-72
2023/04/06 09:27:30;;;;;;;14.25;8.15;;;;;;;10.95;32.31;100330.59;5088049;28;20073;-73
2023/04/06 09:30:13;;;;;;;17.73;8.82;;;;;;;10.82;32.35;100339.84;5085345;28;20030;-72
2023/04/06 09:32:56;;;;;;;13.15;8.48;;;;;;;10.41;32.43;100297.91;5087275;28;20028;-72
2023/04/06 09:35:23;;;;;;;16.42;8.80;;;;;;;10.49;32.49;100319.53;5067460;28;20032;-72
2023/04/06 09:37:50;;;;;;;14.48;8.43;;;;;;;10.37;32.81;100320.59;5087664;28;20028;-73
2023/04/06 09:40:20;;;;;;;15.50;8.68;;;;;;;10.54;32.85;100329.84;5088334;28;20492;-74
2023/04/06 09:42:47;;;;;;;15.80;8.30;;;;;;;10.27;32.70;100316.16;5087987;28;20115;-73
2023/04/06 09:45:13;;;;;;;13.98;9.00;;;;;;;10.30;33.06;100310.53;5087928;28;20034;-73
2023/04/06 09:47:42;;;;;;;15.32;8.68;;;;;;;10.42;33.46;100323.72;5087406;28;20032;-74
2023/04/06 09:50:10;;;;;;;19.33;8.60;;;;;;;10.45;32.99;100317.25;5068953;28;20024;-74
2023/04/06 09:52:50;;;;;;;13.68;7.90;;;;;;;10.44;32.72;100312.84;5086733;28;20046;-73
2023/04/06 09:55:39;;;;;;;13.00;6.95;;;;;;;10.38;33.04;100306.19;5087125;28;20020;-74
2023/04/06 09:58:06;;;;;;;13.13;7.90;;;;;;;10.30;32.87;100300.69;5085892;28;20436;-74
2023/04/06 10:00:40;;;;;;;17.80;8.10;;;;;;;10.21;32.97;100290.75;5086514;28;20052;-73
2023/04/06 10:03:20;;;;;;;15.50;9.30;;;;;;;10.38;33.72;100316.94;5086679;28;20099;-74
2023/04/06 10:05:58;;;;;;;13.68;8.93;;;;;;;10.13;34.27;100311.16;5086471;28;20039;-73
2023/04/06 10:08:27;;;;;;;11.98;8.30;;;;;;;10.17;33.89;100291.13;5086988;28;20471;-74
2023/04/06 10:10:54;;;;;;;13.90;8.60;;;;;;;10.46;33.28;100302.84;5086404;28;20031;-74
2023/04/06 10:13:20;;;;;;;13.40;8.52;;;;;;;10.47;33.38;100307.22;5086827;28;20024;-74
2023/04/06 10:15:46;;;;;;;14.32;8.85;;;;;;;10.44;33.91;100294.94;5068040;28;20043;-73
2023/04/06 10:18:13;;;;;;;17.48;9.80;;;;;;;10.13;34.06;100282.50;5087050;28;20096;-74
2023/04/06 10:21:00;;;;;;;16.17;10.07;;;;;;;9.87;34.58;100291.91;5086523;28;20631;-73
2023/04/06 10:23:40;;;;;;;16.75;10.63;;;;;;;9.74;35.45;100296.59;5085104;28;20020;-74
2023/04/06 10:26:05;;;;;;;17.33;9.63;;;;;;;9.76;35.77;100288.44;5086297;28;20030;-74
2023/04/06 10:28:35;;;;;;;14.57;8.73;;;;;;;9.75;35.78;100290.28;5086406;28;20483;-74
2023/04/06 10:31:04;;;;;;;20.02;10.93;;;;;;;10.12;35.33;100271.94;5067770;28;20051;-74
2023/04/06 10:33:29;;;;;;;17.88;10.65;;;;;;;10.24;33.82;100265.50;5083513;28;20046;-73
2023/04/06 10:35:58;;;;;;;15.82;10.27;;;;;;;10.35;33.95;100265.44;5086045;28;20032;-74
2023/04/06 10:38:34;;;;;;;18.45;9.68;;;;;;;10.06;34.85;100259.03;5087139;28;20517;-74
2023/04/06 10:41:11;;;;;;;13.38;9.20;;;;;;;10.17;34.73;100269.69;5076014;28;20027;-73
2023/04/06 10:43:38;;;;;;;13.93;9.27;;;;;;;10.05;35.16;100276.06;5101246;28;20085;-73
2023/04/06 10:46:05;;;;;;;15.95;9.57;;;;;;;10.30;34.57;100270.34;5086036;28;20020;-73
2023/04/06 10:48:42;;;;;;;14.45;9.82;;;;;;;10.22;34.96;100268.31;5067818;28;20487;-73
2023/04/06 10:51:16;;;;;;;19.20;12.38;;;;;;;10.16;35.06;100260.81;5084652;28;20031;-73
2023/04/06 10:53:51;;;;;;;13.82;9.60;;;;;;;10.33;34.40;100251.28;5067748;28;20446;-74
2023/04/06 10:56:21;;;;;;;14.85;8.93;;;;;;;10.22;34.94;100256.75;5068136;28;20527;-74
2023/04/06 10:58:52;;;;;;;17.50;9.80;;;;;;;10.15;34.23;100245.72;5086724;28;20020;-74
2023/04/06 11:01:22;;;;;;;18.08;9.43;;;;;;;10.45;34.41;100253.75;5070219;28;20060;-74
2023/04/06 11:03:51;;;;;;;12.02;7.93;;;;;;;10.55;34.17;100261.84;5084495;28;20040;-73
2023/04/06 11:06:25;;;;;;;24.88;13.50;;;;;;;10.42;34.71;100261.22;5070724;28;20467;-74
2023/04/06 11:08:51;;;;;;;21.33;10.57;;;;;;;10.40;35.02;100252.44;5086832;28;20501;-74
2023/04/06 11:11:19;;;;;;;24.02;11.38;;;;;;;10.47;34.62;100240.19;5086905;28;20111;-74
2023/04/06 11:13:55;;;;;;;30.85;16.58;;;;;;;10.60;34.35;100254.22;5086453;28;20032;-74